createdAt,value
2018-05-26T00:00:02.904Z,73.20
2018-05-26T00:02:30.366Z,73.20
2018-05-26T00:04:57.833Z,73.30
2018-05-26T00:07:26.063Z,73.00
2018-05-26T00:09:53.542Z,72.90
2018-05-26T00:12:21.011Z,72.90
2018-05-26T00:14:48.481Z,73.00
2018-05-26T00:17:16.709Z,72.90
2018-05-26T00:19:44.174Z,72.90
2018-05-26T00:22:11.630Z,72.80
2018-05-26T00:24:39.114Z,72.80
2018-05-26T00:27:06.582Z,72.70
2018-05-26T00:29:34.072Z,72.90
2018-05-26T00:32:01.538Z,73.00
2018-05-26T00:34:29.012Z,73.00
2018-05-26T00:36:56.478Z,73.10
2018-05-26T00:39:23.966Z,73.30
2018-05-26T00:41:52.194Z,73.50
2018-05-26T00:44:19.683Z,73.30
2018-05-26T00:46:47.148Z,73.30
2018-05-26T00:49:14.622Z,73.20
2018-05-26T00:51:42.850Z,73.20
2018-05-26T00:54:10.327Z,73.20
2018-05-26T00:56:37.785Z,73.30
2018-05-26T00:59:05.280Z,73.30
2018-05-26T01:01:32.753Z,73.10
2018-05-26T01:04:00.217Z,73.30
2018-05-26T01:06:27.686Z,73.40
2018-05-26T01:08:55.154Z,73.20
2018-05-26T01:11:22.635Z,73.50
2018-05-26T01:13:50.103Z,73.60
2018-05-26T01:16:17.577Z,73.50
2018-05-26T01:18:45.043Z,73.60
2018-05-26T01:21:12.514Z,73.50
2018-05-26T01:23:39.982Z,73.50
2018-05-26T01:26:07.458Z,73.50
2018-05-26T01:28:34.914Z,73.50
2018-05-26T01:31:02.390Z,73.50
2018-05-26T01:33:30.150Z,73.70
2018-05-26T01:35:57.617Z,73.60
2018-05-26T01:38:25.087Z,73.50
2018-05-26T01:40:53.322Z,73.90
2018-05-26T01:43:20.898Z,73.20
2018-05-26T01:45:48.381Z,73.50
2018-05-26T01:48:15.833Z,73.40
2018-05-26T01:50:44.071Z,73.60
2018-05-26T01:53:11.533Z,73.60
2018-05-26T01:55:38.997Z,73.60
2018-05-26T01:58:06.454Z,73.60
2018-05-26T02:00:33.925Z,73.60
2018-05-26T02:03:01.385Z,73.60
2018-05-26T02:05:28.870Z,73.60
2018-05-26T02:07:56.331Z,73.80
2018-05-26T02:10:23.789Z,73.80
2018-05-26T02:12:51.266Z,73.80
2018-05-26T02:15:18.728Z,74.00
2018-05-26T02:17:46.201Z,74.00
2018-05-26T02:20:13.671Z,74.10
2018-05-26T02:22:41.143Z,74.10
2018-05-26T02:25:08.610Z,74.10
2018-05-26T02:27:36.850Z,73.80
2018-05-26T02:30:04.314Z,73.80
2018-05-26T02:32:31.783Z,73.90
2018-05-26T02:34:59.243Z,73.90
2018-05-26T02:37:26.715Z,73.80
2018-05-26T02:39:54.182Z,73.90
2018-05-26T02:42:21.659Z,74.00
2018-05-26T02:44:49.126Z,74.60
2018-05-26T02:47:16.598Z,73.80
2018-05-26T02:49:44.070Z,73.60
2018-05-26T02:52:11.546Z,73.70
2018-05-26T02:54:39.011Z,73.70
2018-05-26T02:57:07.249Z,73.90
2018-05-26T02:59:34.725Z,73.80
2018-05-26T03:02:02.215Z,73.90
2018-05-26T03:04:35.246Z,74.60
2018-05-26T03:07:08.542Z,73.90
2018-05-26T03:09:41.622Z,73.90
2018-05-26T03:12:14.789Z,73.90
2018-05-26T03:14:46.707Z,73.80
2018-05-26T03:17:19.899Z,73.90
2018-05-26T03:19:47.361Z,73.80
2018-05-26T03:22:14.831Z,73.70
2018-05-26T03:24:42.316Z,73.80
2018-05-26T03:27:09.779Z,73.90
2018-05-26T03:29:37.250Z,73.90
2018-05-26T03:32:04.722Z,74.10
2018-05-26T03:34:32.206Z,74.20
2018-05-26T03:37:00.434Z,74.30
2018-05-26T03:39:27.910Z,74.30
2018-05-26T03:41:55.568Z,74.10
2018-05-26T03:44:23.038Z,74.20
2018-05-26T03:46:50.510Z,74.30
2018-05-26T03:49:17.982Z,75.20
2018-05-26T03:51:45.445Z,74.40
2018-05-26T03:54:12.927Z,74.40
2018-05-26T03:56:52.117Z,74.30
2018-05-26T03:59:22.179Z,74.10
2018-05-26T04:01:49.639Z,74.00
2018-05-26T04:04:17.236Z,73.90
2018-05-26T04:06:44.698Z,73.90
2018-05-26T04:09:12.182Z,73.90
2018-05-26T04:11:39.641Z,74.00
2018-05-26T04:14:07.095Z,74.00
2018-05-26T04:16:34.575Z,74.10
2018-05-26T04:19:02.043Z,74.20
2018-05-26T04:21:29.514Z,74.50
2018-05-26T04:23:56.974Z,74.50
2018-05-26T04:26:24.445Z,74.70
2018-05-26T04:28:51.909Z,74.60
2018-05-26T04:31:19.390Z,74.70
2018-05-26T04:33:47.623Z,74.80
2018-05-26T04:36:15.103Z,74.80
2018-05-26T04:38:42.562Z,74.70
2018-05-26T04:41:10.759Z,74.70
2018-05-26T04:43:38.223Z,74.70
2018-05-26T04:46:05.703Z,74.70
2018-05-26T04:48:33.163Z,74.50
2018-05-26T04:51:00.642Z,74.60
2018-05-26T04:53:28.110Z,74.60
2018-05-26T04:55:55.587Z,74.50
2018-05-26T04:58:23.046Z,74.70
2018-05-26T05:00:50.515Z,74.70
2018-05-26T05:03:17.974Z,74.70
2018-05-26T05:05:45.466Z,74.80
2018-05-26T05:08:12.916Z,74.80
2018-05-26T05:10:40.406Z,74.70
2018-05-26T05:13:07.875Z,74.40
2018-05-26T05:15:35.342Z,74.50
2018-05-26T05:18:02.881Z,74.70
2018-05-26T05:20:30.350Z,74.80
2018-05-26T05:22:58.593Z,75.30
2018-05-26T05:25:26.096Z,74.60
2018-05-26T05:27:53.570Z,74.90
2018-05-26T05:30:21.029Z,74.80
2018-05-26T05:32:48.502Z,75.10
2018-05-26T05:35:15.962Z,75.20
2018-05-26T05:37:43.442Z,75.10
2018-05-26T05:40:10.914Z,74.90
2018-05-26T05:42:38.385Z,74.80
2018-05-26T05:45:06.623Z,74.70
2018-05-26T05:47:34.096Z,74.70
2018-05-26T05:50:01.562Z,74.60
2018-05-26T05:52:29.038Z,75.20
2018-05-26T05:54:56.506Z,74.30
2018-05-26T05:57:23.987Z,74.20
2018-05-26T05:59:51.449Z,74.20
2018-05-26T06:02:18.931Z,74.10
2018-05-26T06:04:46.519Z,74.10
2018-05-26T06:07:13.990Z,73.90
2018-05-26T06:09:41.462Z,73.80
2018-05-26T06:12:09.081Z,73.80
2018-05-26T06:14:36.554Z,73.60
2018-05-26T06:17:05.122Z,73.50
2018-05-26T06:19:32.892Z,73.40
2018-05-26T06:22:00.523Z,73.40
2018-05-26T06:24:28.120Z,73.30
2018-05-26T06:26:55.867Z,73.30
2018-05-26T06:29:23.632Z,73.10
2018-05-26T06:31:51.160Z,73.00
2018-05-26T06:34:18.858Z,72.90
2018-05-26T06:36:46.614Z,72.80
2018-05-26T06:39:14.384Z,72.50
2018-05-26T06:41:42.013Z,72.30
2018-05-26T06:44:09.498Z,72.20
2018-05-26T06:46:36.983Z,72.00
2018-05-26T06:49:04.467Z,72.00
2018-05-26T06:51:31.944Z,71.90
2018-05-26T06:53:59.426Z,71.70
2018-05-26T06:56:27.191Z,71.30
2018-05-26T06:58:54.665Z,71.20
2018-05-26T07:01:22.415Z,71.00
2018-05-26T07:03:50.178Z,70.70
2018-05-26T07:06:17.631Z,70.50
2018-05-26T07:08:45.392Z,70.30
2018-05-26T07:11:13.163Z,70.10
2018-05-26T07:13:40.922Z,70.00
2018-05-26T07:16:08.574Z,69.80
2018-05-26T07:18:36.138Z,69.40
2018-05-26T07:21:03.786Z,69.30
2018-05-26T07:23:31.268Z,69.20
2018-05-26T07:25:58.738Z,68.80
2018-05-26T07:28:26.204Z,68.80
2018-05-26T07:30:53.739Z,68.50
2018-05-26T07:33:21.383Z,68.20
2018-05-26T07:35:48.872Z,67.80
2018-05-26T07:38:16.342Z,67.60
2018-05-26T07:40:43.815Z,67.40
2018-05-26T07:43:11.279Z,67.30
2018-05-26T07:45:38.753Z,67.10
2018-05-26T07:48:06.418Z,66.90
2018-05-26T07:50:33.919Z,66.70
2018-05-26T07:53:01.459Z,66.50
2018-05-26T07:55:29.221Z,66.30
2018-05-26T07:57:56.990Z,66.20
2018-05-26T08:00:24.784Z,65.90
2018-05-26T08:02:53.135Z,65.70
2018-05-26T08:05:20.828Z,65.60
2018-05-26T08:07:48.360Z,65.60
2018-05-26T08:10:16.011Z,65.60
2018-05-26T08:12:43.499Z,65.60
2018-05-26T08:15:10.967Z,65.80
2018-05-26T08:17:38.431Z,65.70
2018-05-26T08:20:05.894Z,65.50
2018-05-26T08:22:33.374Z,65.30
2018-05-26T08:25:00.829Z,65.10
2018-05-26T08:27:28.307Z,65.00
2018-05-26T08:29:55.771Z,64.80
2018-05-26T08:32:23.238Z,64.60
2018-05-26T08:34:50.702Z,64.50
2018-05-26T08:37:18.171Z,64.40
2018-05-26T08:39:45.634Z,64.20
2018-05-26T08:42:13.120Z,64.20
2018-05-26T08:44:40.743Z,64.20
2018-05-26T08:47:08.270Z,64.20
2018-05-26T08:49:37.446Z,64.20
2018-05-26T08:52:04.916Z,64.10
2018-05-26T08:54:32.374Z,64.10
2018-05-26T08:56:59.854Z,63.90
2018-05-26T08:59:27.317Z,63.80
2018-05-26T09:01:54.804Z,63.60
2018-05-26T09:04:22.263Z,63.50
2018-05-26T09:06:49.730Z,63.50
2018-05-26T09:09:17.205Z,63.50
2018-05-26T09:11:44.662Z,63.50
2018-05-26T09:14:12.447Z,63.50
2018-05-26T09:16:39.906Z,63.40
2018-05-26T09:19:08.892Z,62.70
2018-05-26T09:21:36.350Z,62.70
2018-05-26T09:24:04.003Z,62.20
2018-05-26T09:26:31.482Z,62.00
2018-05-26T09:28:58.942Z,61.60
2018-05-26T09:31:26.397Z,61.40
2018-05-26T09:33:53.864Z,61.10
2018-05-26T09:36:21.323Z,60.80
2018-05-26T09:38:48.790Z,60.60
2018-05-26T09:41:16.246Z,60.40
2018-05-26T09:43:43.801Z,60.40
2018-05-26T09:46:12.730Z,60.30
2018-05-26T09:48:40.218Z,60.20
2018-05-26T09:51:07.987Z,60.30
2018-05-26T09:53:35.744Z,59.90
2018-05-26T09:56:03.248Z,59.80
2018-05-26T09:58:31.446Z,59.60
2018-05-26T10:00:58.910Z,59.50
2018-05-26T10:03:26.500Z,59.50
2018-05-26T10:05:54.139Z,59.20
2018-05-26T10:08:21.626Z,58.90
2018-05-26T10:10:49.174Z,58.80
2018-05-26T10:13:16.627Z,58.70
2018-05-26T10:15:44.108Z,58.40
2018-05-26T10:18:11.760Z,58.20
2018-05-26T10:20:39.302Z,58.20
2018-05-26T10:23:06.762Z,57.80
2018-05-26T10:25:34.423Z,57.60
2018-05-26T10:28:01.988Z,57.40
2018-05-26T10:30:29.450Z,57.30
2018-05-26T10:32:57.683Z,56.90
2018-05-26T10:35:25.199Z,56.80
2018-05-26T10:37:52.659Z,56.90
2018-05-26T10:40:20.191Z,56.90
2018-05-26T10:42:47.950Z,57.00
2018-05-26T10:45:15.415Z,57.00
2018-05-26T10:47:43.667Z,56.50
2018-05-26T10:50:11.242Z,56.50
2018-05-26T10:52:38.698Z,56.20
2018-05-26T10:55:06.350Z,56.10
2018-05-26T10:57:33.806Z,55.60
2018-05-26T11:00:01.296Z,55.30
2018-05-26T11:02:28.754Z,55.20
2018-05-26T11:04:56.233Z,55.60
2018-05-26T11:07:23.746Z,55.10
2018-05-26T11:09:51.510Z,55.10
2018-05-26T11:12:18.987Z,55.10
2018-05-26T11:14:46.745Z,54.90
2018-05-26T11:17:15.922Z,54.90
2018-05-26T11:19:43.398Z,54.90
2018-05-26T11:22:10.954Z,54.90
2018-05-26T11:24:38.831Z,54.50
2018-05-26T11:27:06.394Z,54.40
2018-05-26T11:29:33.867Z,54.30
2018-05-26T11:32:01.394Z,54.40
2018-05-26T11:34:28.882Z,54.60
2018-05-26T11:36:56.361Z,54.70
2018-05-26T11:39:24.662Z,54.80
2018-05-26T11:41:52.126Z,54.80
2018-05-26T11:44:21.090Z,54.90
2018-05-26T11:46:48.557Z,54.70
2018-05-26T11:49:16.778Z,54.50
2018-05-26T11:51:45.019Z,54.50
2018-05-26T11:54:12.498Z,54.40
2018-05-26T11:56:41.470Z,54.00
2018-05-26T11:59:09.128Z,54.00
2018-05-26T12:01:36.710Z,53.90
2018-05-26T12:04:04.170Z,53.70
2018-05-26T12:06:31.626Z,53.80
2018-05-26T12:08:59.274Z,53.60
2018-05-26T12:11:26.812Z,53.40
2018-05-26T12:13:54.484Z,53.20
2018-05-26T12:16:21.941Z,53.20
2018-05-26T12:18:49.519Z,53.10
2018-05-26T12:21:18.507Z,52.90
2018-05-26T12:23:46.386Z,52.90
2018-05-26T12:26:13.914Z,53.00
2018-05-26T12:28:41.419Z,53.00
2018-05-26T12:31:08.874Z,52.90
2018-05-26T12:33:36.409Z,52.70
2018-05-26T12:36:05.430Z,52.50
2018-05-26T12:38:33.050Z,52.40
2018-05-26T12:41:00.619Z,52.30
2018-05-26T12:43:29.923Z,52.10
2018-05-26T12:45:57.566Z,52.00
2018-05-26T12:48:25.134Z,51.70
2018-05-26T12:50:52.773Z,51.40
2018-05-26T12:53:20.363Z,51.20
2018-05-26T12:55:49.354Z,50.80
2018-05-26T12:58:16.986Z,50.80
2018-05-26T13:00:44.570Z,50.80
2018-05-26T13:03:13.878Z,51.00
2018-05-26T13:05:41.555Z,51.00
2018-05-26T13:08:09.017Z,51.00
2018-05-26T13:10:36.499Z,51.00
2018-05-26T13:13:04.009Z,51.00
2018-05-26T13:15:33.306Z,51.00
2018-05-26T13:18:02.602Z,50.90
2018-05-26T13:20:30.358Z,50.90
2018-05-26T13:22:58.135Z,51.00
2018-05-26T13:25:27.134Z,50.50
2018-05-26T13:27:55.359Z,50.30
2018-05-26T13:30:22.970Z,50.30
2018-05-26T13:32:50.727Z,50.00
2018-05-26T13:35:19.759Z,49.40
2018-05-26T13:37:47.390Z,49.40
2018-05-26T13:40:14.936Z,49.30
2018-05-26T13:42:42.579Z,49.10
2018-05-26T13:45:10.042Z,49.00
2018-05-26T13:47:37.618Z,48.90
2018-05-26T13:50:06.610Z,48.90
2018-05-26T13:52:35.790Z,49.00
2018-05-26T13:55:03.292Z,48.90
2018-05-26T13:57:30.718Z,49.20
2018-05-26T13:59:58.179Z,49.40
2018-05-26T14:02:25.689Z,49.20
2018-05-26T14:04:53.128Z,49.00
2018-05-26T14:07:20.637Z,49.00
2018-05-26T14:09:48.402Z,48.80
2018-05-26T14:12:15.871Z,48.50
2018-05-26T14:14:44.834Z,48.00
2018-05-26T14:17:12.335Z,48.00
2018-05-26T14:19:40.082Z,48.00
2018-05-26T14:22:09.058Z,48.20
2018-05-26T14:24:36.522Z,48.20
2018-05-26T14:27:03.990Z,48.20
2018-05-26T14:29:32.986Z,48.10
2018-05-26T14:32:01.973Z,48.10
2018-05-26T14:34:29.748Z,48.00
2018-05-26T14:36:57.217Z,48.20
2018-05-26T14:39:24.831Z,48.20
2018-05-26T14:41:52.338Z,48.10
2018-05-26T14:44:19.789Z,48.00
2018-05-26T14:46:47.259Z,48.00
2018-05-26T14:49:14.714Z,48.00
2018-05-26T14:51:42.180Z,48.10
2018-05-26T14:54:09.699Z,48.00
2018-05-26T14:56:38.674Z,48.30
2018-05-26T14:59:06.151Z,48.30
2018-05-26T15:01:35.454Z,48.30
2018-05-26T15:04:04.418Z,48.50
2018-05-26T15:06:31.910Z,48.40
2018-05-26T15:08:59.548Z,48.70
2018-05-26T15:11:27.032Z,48.90
2018-05-26T15:13:54.498Z,48.80
2018-05-26T15:16:21.959Z,48.60
2018-05-26T15:18:49.498Z,48.60
2018-05-26T15:21:17.139Z,48.50
2018-05-26T15:23:44.642Z,48.40
2018-05-26T15:26:12.159Z,48.20
2018-05-26T15:28:39.846Z,48.10
2018-05-26T15:31:07.403Z,47.90
2018-05-26T15:33:35.038Z,47.80
2018-05-26T15:36:02.615Z,47.90
2018-05-26T15:38:31.599Z,48.10
2018-05-26T15:40:59.249Z,48.10
2018-05-26T15:43:26.750Z,48.00
2018-05-26T15:45:54.216Z,47.80
2018-05-26T15:48:21.739Z,47.90
2018-05-26T15:50:49.198Z,47.90
2018-05-26T15:53:16.972Z,47.90
2018-05-26T15:55:44.498Z,48.00
2018-05-26T15:58:12.094Z,48.00
2018-05-26T16:00:39.622Z,47.80
2018-05-26T16:03:07.290Z,47.80
2018-05-26T16:05:34.773Z,47.80
2018-05-26T16:08:03.245Z,47.80
2018-05-26T16:10:30.710Z,47.80
2018-05-26T16:12:58.165Z,47.90
2018-05-26T16:15:25.641Z,48.10
2018-05-26T16:17:53.091Z,48.20
2018-05-26T16:20:20.566Z,48.50
2018-05-26T16:22:48.015Z,48.50
2018-05-26T16:25:15.483Z,48.50
2018-05-26T16:27:42.940Z,48.80
2018-05-26T16:30:10.409Z,48.90
2018-05-26T16:32:37.867Z,49.10
2018-05-26T16:35:05.362Z,49.30
2018-05-26T16:37:32.846Z,49.30
2018-05-26T16:40:01.079Z,48.80
2018-05-26T16:42:28.545Z,48.90
2018-05-26T16:44:56.010Z,48.80
2018-05-26T16:47:23.475Z,48.90
2018-05-26T16:49:50.934Z,48.90
2018-05-26T16:52:18.386Z,48.80
2018-05-26T16:54:45.871Z,48.70
2018-05-26T16:57:13.331Z,48.70
2018-05-26T16:59:40.802Z,48.50
2018-05-26T17:02:08.269Z,48.60
2018-05-26T17:04:35.722Z,48.50
2018-05-26T17:07:03.190Z,48.50
2018-05-26T17:09:30.675Z,48.60
2018-05-26T17:11:58.121Z,48.70
2018-05-26T17:14:25.621Z,48.70
2018-05-26T17:16:53.858Z,48.70
2018-05-26T17:19:21.310Z,48.70
2018-05-26T17:21:48.774Z,48.60
2018-05-26T17:24:16.229Z,48.60
2018-05-26T17:26:43.713Z,48.70
2018-05-26T17:29:11.174Z,48.80
2018-05-26T17:31:38.643Z,48.80
2018-05-26T17:34:06.090Z,48.70
2018-05-26T17:36:33.756Z,48.70
2018-05-26T17:39:01.218Z,48.70
2018-05-26T17:41:28.686Z,48.70
2018-05-26T17:43:56.148Z,48.70
2018-05-26T17:46:23.603Z,48.60
2018-05-26T17:48:51.130Z,48.60
2018-05-26T17:51:18.578Z,48.60
2018-05-26T17:53:47.550Z,48.50
2018-05-26T17:56:15.202Z,48.40
2018-05-26T17:58:42.679Z,48.50
2018-05-26T18:01:10.126Z,48.60
2018-05-26T18:03:37.617Z,48.60
2018-05-26T18:06:05.162Z,48.70
2018-05-26T18:08:34.142Z,48.90
2018-05-26T18:11:01.914Z,48.90
2018-05-26T18:13:29.388Z,49.00
2018-05-26T18:15:57.161Z,49.20
2018-05-26T18:18:24.626Z,49.30
2018-05-26T18:20:52.210Z,49.30
2018-05-26T18:23:19.814Z,49.40
2018-05-26T18:25:47.270Z,49.50
2018-05-26T18:28:14.866Z,49.60
2018-05-26T18:30:43.290Z,49.90
2018-05-26T18:33:10.828Z,49.80
2018-05-26T18:35:38.282Z,50.10
2018-05-26T18:38:05.791Z,50.20
2018-05-26T18:40:33.426Z,50.30
2018-05-26T18:43:00.891Z,50.60
2018-05-26T18:45:28.462Z,50.70
2018-05-26T18:47:57.549Z,51.00
2018-05-26T18:50:25.178Z,51.00
2018-05-26T18:52:52.835Z,51.10
2018-05-26T18:55:20.450Z,51.20
2018-05-26T18:57:49.622Z,51.70
2018-05-26T19:00:17.081Z,51.70
2018-05-26T19:02:44.555Z,51.90
2018-05-26T19:05:12.030Z,52.20
2018-05-26T19:07:39.482Z,52.40
2018-05-26T19:10:07.035Z,52.70
2018-05-26T19:12:34.790Z,53.00
2018-05-26T19:15:03.771Z,53.40
2018-05-26T19:17:31.431Z,53.40
2018-05-26T19:19:58.923Z,53.60
2018-05-26T19:22:26.463Z,53.70
2018-05-26T19:24:55.651Z,54.10
2018-05-26T19:27:23.148Z,54.20
2018-05-26T19:29:50.679Z,54.40
2018-05-26T19:32:19.982Z,54.80
2018-05-26T19:34:48.234Z,54.90
2018-05-26T19:37:15.725Z,54.90
2018-05-26T19:39:43.269Z,55.00
2018-05-26T19:42:12.246Z,55.20
2018-05-26T19:44:40.037Z,55.20
2018-05-26T19:47:09.322Z,55.60
2018-05-26T19:49:36.977Z,55.60
2018-05-26T19:52:04.742Z,55.90
2018-05-26T19:54:32.207Z,56.10
2018-05-26T19:56:59.674Z,56.40
2018-05-26T19:59:27.171Z,56.70
2018-05-26T20:01:54.647Z,57.10
2018-05-26T20:04:22.138Z,57.50
2018-05-26T20:06:49.614Z,57.70
2018-05-26T20:09:17.233Z,57.80
2018-05-26T20:11:44.731Z,58.10
2018-05-26T20:14:12.281Z,58.20
2018-05-26T20:16:41.266Z,58.80
2018-05-26T20:19:09.064Z,58.70
2018-05-26T20:21:36.678Z,59.00
2018-05-26T20:24:04.254Z,59.10
2018-05-26T20:26:33.223Z,59.40
2018-05-26T20:29:01.018Z,59.40
2018-05-26T20:31:28.483Z,59.60
2018-05-26T20:33:55.951Z,59.70
2018-05-26T20:36:23.595Z,59.90
2018-05-26T20:38:51.066Z,60.10
2018-05-26T20:41:18.606Z,60.30
2018-05-26T20:43:46.844Z,60.80
2018-05-26T20:46:14.370Z,60.80
2018-05-26T20:48:41.894Z,61.00
2018-05-26T20:51:10.288Z,61.30
2018-05-26T20:53:38.035Z,61.60
2018-05-26T20:56:05.676Z,61.80
2018-05-26T20:58:33.174Z,61.80
2018-05-26T21:01:00.720Z,62.00
2018-05-26T21:03:29.694Z,62.40
2018-05-26T21:05:57.155Z,62.40
2018-05-26T21:08:24.812Z,62.70
2018-05-26T21:10:52.399Z,63.00
2018-05-26T21:13:20.022Z,63.20
2018-05-26T21:15:47.602Z,63.40
2018-05-26T21:18:15.058Z,63.50
2018-05-26T21:20:42.727Z,63.60
2018-05-26T21:23:10.175Z,63.70
2018-05-26T21:25:37.647Z,64.00
2018-05-26T21:28:05.102Z,64.20
2018-05-26T21:30:32.578Z,64.50
2018-05-26T21:33:00.032Z,64.70
2018-05-26T21:35:27.493Z,64.80
2018-05-26T21:37:55.022Z,64.90
2018-05-26T21:40:22.663Z,65.00
2018-05-26T21:42:50.182Z,65.20
2018-05-26T21:45:17.698Z,65.30
2018-05-26T21:47:45.156Z,65.60
2018-05-26T21:50:12.746Z,65.70
2018-05-26T21:52:40.374Z,65.80
2018-05-26T21:55:08.143Z,66.10
2018-05-26T21:57:35.905Z,66.30
2018-05-26T22:00:03.383Z,66.30
2018-05-26T22:02:31.122Z,66.40
2018-05-26T22:04:58.615Z,66.30
2018-05-26T22:07:26.675Z,66.40
2018-05-26T22:09:54.207Z,66.60
2018-05-26T22:12:21.881Z,66.60
2018-05-26T22:14:49.341Z,66.80
2018-05-26T22:17:18.137Z,67.00
2018-05-26T22:19:46.362Z,67.20
2018-05-26T22:22:13.840Z,67.10
2018-05-26T22:24:41.488Z,67.30
2018-05-26T22:27:08.986Z,67.30
2018-05-26T22:29:36.443Z,67.40
2018-05-26T22:32:03.989Z,67.50
2018-05-26T22:34:31.757Z,67.70
2018-05-26T22:36:59.530Z,67.70
2018-05-26T22:39:27.282Z,67.80
2018-05-26T22:41:55.048Z,67.90
2018-05-26T22:44:22.801Z,68.00
2018-05-26T22:46:50.454Z,68.10
2018-05-26T22:49:18.949Z,68.30
2018-05-26T22:51:46.602Z,68.30
2018-05-26T22:54:14.078Z,68.60
2018-05-26T22:56:41.542Z,68.60
2018-05-26T22:59:09.082Z,68.60
2018-05-26T23:01:36.841Z,68.70
2018-05-26T23:04:04.431Z,68.60
2018-05-26T23:06:32.865Z,68.70
2018-05-26T23:09:00.431Z,68.50
2018-05-26T23:11:27.882Z,68.60
2018-05-26T23:13:55.355Z,68.80
2018-05-26T23:16:22.809Z,68.80
2018-05-26T23:18:50.461Z,68.90
2018-05-26T23:21:17.945Z,69.00
2018-05-26T23:23:45.418Z,69.20
2018-05-26T23:26:12.878Z,69.20
2018-05-26T23:28:40.350Z,69.20
2018-05-26T23:31:07.818Z,69.30
2018-05-26T23:33:35.299Z,69.30
2018-05-26T23:36:02.781Z,69.30
2018-05-26T23:38:30.546Z,69.40
2018-05-26T23:40:58.185Z,69.40
2018-05-26T23:43:25.674Z,69.60
2018-05-26T23:45:53.131Z,69.70
2018-05-26T23:48:20.679Z,69.80
2018-05-26T23:50:48.346Z,69.60
2018-05-26T23:53:15.815Z,69.80
2018-05-26T23:55:43.357Z,70.00
2018-05-26T23:58:10.811Z,70.00
